Sauk Centre, MN (56378)

4:08 AM CST on February 14, 2016 (GMT -0600)
Sauk Centre | | Change Station
CLOSE
Current Station
Airport
Location: Sauk Centre,
Elevation: 1240 ft
Nearby Weather Stations

Elev 1240 ft 45.71 °N, 94.93 °W | Updated 15 minutes ago

Overcast
Overcast
9 °F
Feels Like -6 °F
N
12
Wind Variable Wind from SE
Gusts 18 mph

Today
High -- | Low -- °F
--% Chance of Precip.
Yesterday
High -- | Low -- °F
Precip. -- in
Pressure 30.04 in
Visibility 10.0 miles
Clouds Scattered Clouds 1800 ft
Scattered Clouds 4100 ft
Overcast 5000 ft
Windchill -6 °F
Dew Point 3 °F
Humidity 76%
Rainfall 0.00 in
Snow Depth Not available.
7:24 AM 5:44 PM
Waxing Crescent, 40% visible
METAR KD39 140953Z AUTO 13010G16KT 10SM -SN SCT018 SCT041 OVC050 M13/M16 A3004 RMK AO2 T11271162
Pressure 30.04 in
Visibility 10.0 miles
Clouds Scattered Clouds 1800 ft
Scattered Clouds 4100 ft
Overcast 5000 ft
Windchill -6 °F
Dew Point 3 °F
Humidity 76%
Rainfall 0.00 in
Snow Depth Not available.
7:24 AM 5:44 PM
Waxing Crescent, 40% visible
METAR KD39 140953Z AUTO 13010G16KT 10SM -SN SCT018 SCT041 OVC050 M13/M16 A3004 RMK AO2 T11271162

10-Day Weather Forecast

Almanac

Astronomy

Feb. 14, 2016 Rise Set
Actual Time
Civil Twilight
Nautical Twilight
Astronomical Twilight
Moon
Length of Visible Light
Length of Day
Tomorrow will be .
, % of the Moon is Illuminated

Today's Extremes

State Highs State Lows

Community

WunderPhotos

Upload Photos

1,892,761 photos uploaded!

WunderBlog® & News

Nearby

Air Quality

  Air Quality AQ Index Pollutant
Not available.

Snow Depth

Station Depth Elevation

Earthquake Activity

City Distance Mag. Time & Date
Minimum magnitude displayed is 2.5.

Coastal Water Temperatures

Place Temperature

Stations

Nearby Weather Stations

Station Location Temp. Windchill Dew Point Humidity Wind Precip. Elev Updated Type
                   

Watches & Warnings

There are currently no watches in effect.